createdAt,value
2023-04-01T13:02:26.867Z,11.98
2023-04-01T13:05:02.737Z,11.88
2023-04-01T13:08:17.079Z,12.15
2023-04-01T13:11:02.397Z,12.24
2023-04-01T13:13:48.800Z,11.98
2023-04-01T13:16:16.089Z,12.44
2023-04-01T13:18:54.055Z,12.15
2023-04-01T13:21:25.921Z,11.57
2023-04-01T13:23:57.517Z,11.66
2023-04-01T13:26:28.455Z,11.58
2023-04-01T13:28:59.798Z,11.52
2023-04-01T13:31:56.657Z,11.40
2023-04-01T13:34:34.261Z,11.82
2023-04-01T13:37:10.284Z,11.27
2023-04-01T13:39:46.751Z,11.34
2023-04-01T13:42:18.021Z,12.57
2023-04-01T13:44:47.435Z,13.88
2023-04-01T13:47:41.057Z,14.68
2023-04-01T13:50:19.073Z,14.20
2023-04-01T13:52:57.507Z,13.61
2023-04-01T13:55:47.789Z,12.73
2023-04-01T13:58:45.601Z,12.22
2023-04-01T14:01:15.252Z,11.65
2023-04-01T14:03:49.531Z,11.49
2023-04-01T14:06:22.136Z,11.42
2023-04-01T14:09:20.190Z,11.67
2023-04-01T14:11:51.769Z,11.72
2023-04-01T14:14:22.089Z,11.92
2023-04-01T14:17:04.816Z,11.43
2023-04-01T14:19:41.072Z,11.20
2023-04-01T14:22:14.868Z,11.08
2023-04-01T14:24:52.298Z,10.78
2023-04-01T14:27:25.192Z,11.04
2023-04-01T14:30:07.427Z,11.30
2023-04-01T14:32:39.791Z,10.89
2023-04-01T14:35:17.410Z,11.10
2023-04-01T14:38:14.292Z,11.04
2023-04-01T14:40:52.701Z,10.90
2023-04-01T14:43:39.508Z,10.67
2023-04-01T14:47:09.114Z,10.68
2023-04-01T14:49:37.066Z,11.18
2023-04-01T14:52:10.940Z,11.15
2023-04-01T14:54:43.218Z,11.18
2023-04-01T14:57:12.511Z,11.10
2023-04-01T14:59:40.985Z,11.67
2023-04-01T15:02:13.891Z,13.63
2023-04-01T15:04:48.721Z,14.96
2023-04-01T15:07:42.480Z,16.49
2023-04-01T15:10:14.121Z,17.59
2023-04-01T15:12:43.056Z,16.78
2023-04-01T15:15:18.820Z,14.82
2023-04-01T15:17:52.455Z,16.78
2023-04-01T15:20:35.067Z,14.69
2023-04-01T15:23:15.074Z,14.14
2023-04-01T15:25:53.082Z,13.59
2023-04-01T15:28:25.202Z,12.50
2023-04-01T15:30:55.590Z,11.77
2023-04-01T15:33:32.308Z,11.71
2023-04-01T15:36:04.174Z,11.46
2023-04-01T15:38:34.533Z,11.28
2023-04-01T15:41:09.233Z,11.05
2023-04-01T15:43:41.614Z,11.05
2023-04-01T15:46:25.910Z,10.73
2023-04-01T15:49:01.293Z,10.62
2023-04-01T15:51:37.313Z,11.08
2023-04-01T15:54:13.599Z,11.45
2023-04-01T15:56:52.270Z,11.70
2023-04-01T15:59:34.065Z,12.03
2023-04-01T16:02:03.176Z,11.97
2023-04-01T16:04:41.633Z,11.66
2023-04-01T16:07:12.209Z,11.52
2023-04-01T16:09:54.229Z,11.66
2023-04-01T16:12:30.163Z,11.18
2023-04-01T16:15:02.657Z,11.29
2023-04-01T16:17:44.982Z,11.19
2023-04-01T16:20:19.072Z,11.09
2023-04-01T16:22:48.116Z,11.15
2023-04-01T16:25:20.433Z,11.11
2023-04-01T16:27:52.605Z,10.85
2023-04-01T16:30:45.390Z,10.91
2023-04-01T16:33:15.287Z,10.77
2023-04-01T16:35:44.629Z,11.15
2023-04-01T16:38:17.016Z,11.04
2023-04-01T16:40:46.226Z,10.90
2023-04-01T16:43:19.214Z,10.96
2023-04-01T16:45:48.309Z,10.80
2023-04-01T16:48:15.925Z,10.79
2023-04-01T16:50:52.440Z,10.85
2023-04-01T16:53:22.635Z,10.73
2023-04-01T16:55:51.171Z,10.12
2023-04-01T16:58:24.227Z,10.58
2023-04-01T17:00:53.733Z,10.47
2023-04-01T17:03:23.546Z,10.26
2023-04-01T17:06:03.787Z,10.08
2023-04-01T17:08:40.368Z,9.71
2023-04-01T17:11:11.098Z,9.76
2023-04-01T17:13:44.629Z,9.59
2023-04-01T17:16:20.243Z,9.43
2023-04-01T17:18:50.645Z,9.49
2023-04-01T17:21:19.532Z,9.31
2023-04-01T17:23:49.588Z,9.28
2023-04-01T17:26:24.661Z,9.31
2023-04-01T17:28:53.976Z,9.15
2023-04-01T17:31:46.747Z,9.36
2023-04-01T17:34:25.778Z,9.14
2023-04-01T17:37:05.990Z,9.21
2023-04-01T17:39:42.219Z,9.21
2023-04-01T17:42:10.819Z,9.08
2023-04-01T17:44:48.466Z,9.26
2023-04-01T17:47:40.058Z,9.16
2023-04-01T17:50:24.596Z,9.11
2023-04-01T17:53:08.615Z,9.11
2023-04-01T17:55:48.568Z,9.16
2023-04-01T17:58:19.396Z,9.01
2023-04-01T18:00:59.790Z,9.16
2023-04-01T18:03:38.529Z,9.27
2023-04-01T18:06:07.785Z,9.10
2023-04-01T18:08:41.808Z,9.11
2023-04-01T18:11:13.386Z,9.06
2023-04-01T18:14:01.638Z,8.82
2023-04-01T18:16:38.472Z,8.67
2023-04-01T18:19:10.500Z,8.67
2023-04-01T18:21:43.355Z,8.80
2023-04-01T18:24:16.125Z,8.67
2023-04-01T18:26:44.372Z,8.74
2023-04-01T18:29:14.577Z,8.59
2023-04-01T18:31:44.406Z,8.49
2023-04-01T18:34:15.718Z,8.27
2023-04-01T18:36:45.496Z,8.43
2023-04-01T18:39:14.378Z,8.38
2023-04-01T18:41:51.494Z,8.38
2023-04-01T18:44:26.957Z,8.33
2023-04-01T18:46:59.189Z,8.50
2023-04-01T18:49:28.689Z,8.43
2023-04-01T18:51:57.935Z,8.40
2023-04-01T18:54:27.548Z,8.66
2023-04-01T18:57:02.235Z,8.64
2023-04-01T18:59:30.891Z,8.76
2023-04-01T19:02:03.613Z,8.60
2023-04-01T19:04:33.133Z,8.57
2023-04-01T19:07:01.035Z,8.57
2023-04-01T19:09:29.009Z,8.72
2023-04-01T19:12:16.008Z,8.47
2023-04-01T19:14:54.750Z,8.41
2023-04-01T19:17:30.753Z,8.26
2023-04-01T19:20:00.906Z,8.38
2023-04-01T19:22:44.529Z,8.58
2023-04-01T19:25:21.749Z,8.23
2023-04-01T19:27:50.922Z,8.45
2023-04-01T19:30:31.063Z,8.16
2023-04-01T19:33:05.209Z,8.22
2023-04-01T19:35:37.073Z,8.04
2023-04-01T19:38:05.526Z,8.03
2023-04-01T19:40:42.870Z,7.80
2023-04-01T19:43:14.251Z,8.06
2023-04-01T19:45:44.284Z,8.03
2023-04-01T19:48:20.159Z,8.20
2023-04-01T19:50:48.859Z,7.89
2023-04-01T19:53:19.853Z,8.01
2023-04-01T19:55:49.271Z,7.78
2023-04-01T19:58:19.214Z,8.08
2023-04-01T20:00:49.116Z,8.36
2023-04-01T20:03:26.062Z,8.37
2023-04-01T20:06:00.204Z,7.80
